This is the latest recevied weather packets stored in our database for station/object WA6GRA. If no packets are shown the sender has not sent any weather packets the latest 10 day(s).
| Time | Temp. | Humidity | Pressure | Rain* | Wind** | Luminosity | Snow |
|---|---|---|---|---|---|---|---|
| 1777350954 | 15° C | 74% | 1017.7 hPa | 0 mm | - | 0 W/m² | - |
| 1777350353 | 15.56° C | 72% | 1017.5 hPa | 0 mm | - | 0 W/m² | - |
| 1777349752 | 15.56° C | 70% | 1017 hPa | 0 mm | - | 0 W/m² | - |
| 1777349149 | 16.11° C | 68% | 1017 hPa | 0 mm | - | 0 W/m² | - |
| 1777348549 | 16.11° C | 67% | 1016.7 hPa | 0 mm | - | 0 W/m² | - |
| 1777347944 | 16.11° C | 67% | 1016.8 hPa | 0 mm | - | 0 W/m² | - |
| 1777347344 | 16.11° C | 67% | 1016.5 hPa | 0 mm | - | 0 W/m² | - |
| 1777346743 | 16.67° C | 66% | 1016.3 hPa | 0 mm | - | 0 W/m² | - |
| 1777346142 | 16.67° C | 66% | 1016.1 hPa | 0 mm | - | 0 W/m² | - |
| 1777345536 | 16.67° C | 64% | 1016.2 hPa | 0 mm | - | 0 W/m² | - |
| 1777344935 | 16.67° C | 63% | 1015.8 hPa | 0 mm | - | 0 W/m² | - |
| 1777344334 | 16.67° C | 61% | 1015.7 hPa | 0 mm | - | 2 W/m² | - |
| 1777343734 | 17.22° C | 60% | 1015.5 hPa | 0 mm | - | 7 W/m² | - |
| 1777343130 | 18.33° C | 50% | 1015.4 hPa | 0 mm | - | 17 W/m² | - |
| 1777342530 | 18.89° C | 48% | 1015.5 hPa | 0 mm | - | 29 W/m² | - |
| 1777341929 | 18.89° C | 48% | 1015.2 hPa | 0 mm | - | 49 W/m² | - |
| 1777341327 | 18.89° C | 48% | 1014.9 hPa | 0 mm | - | 57 W/m² | - |
| 1777340721 | 19.44° C | 47% | 1015.3 hPa | 0 mm | - | 77 W/m² | - |
| 1777340117 | 19.44° C | 47% | 1015.1 hPa | 0 mm | - | 115 W/m² | - |
| 1777339512 | 19.44° C | 46% | 1015.1 hPa | 0 mm | - | 135 W/m² | - |
| 1777338907 | 19.44° C | 48% | 1015.2 hPa | 0 mm | - | 174 W/m² | - |
| 1777338306 | 19.44° C | 47% | 1015.3 hPa | 0 mm | - | 186 W/m² | - |
| 1777337705 | 19.44° C | 46% | 1015 hPa | 0 mm | - | 199 W/m² | - |
| 1777337099 | 20° C | 47% | 1015.2 hPa | 0 mm | - | 226 W/m² | - |
| 1777336496 | 19.44° C | 46% | 1015.2 hPa | 0 mm | - | 249 W/m² | - |
* Rain latest hour (hover to see other rain measurements)
** Current wind speed in m/s (hover to see current wind gust speed)